Leviticus — WDC2712 — position and weather

sailwx.info

Track history (hours):
 
Tides and Currents Weather Stations Pressure Air Temp Water Temp Dewpoint Dewpoint Depression Visibility Wind Speed Wind Dir Waves Ship Positions

Leviticus

Owner: Kirby Inland Marine, LP, Houston, TX. More information available from US FCC via Universal Licensing System and Coast Guard Vessel Documentation Center.

Last reported at 2017-Sep-20 00:30 UTC. Time now 2017-Sep-22 10:18 UTC.
Position N 32°44' W 091°04'.

Length 349 m; draft 2.9 m.

Type: . MMSI: 366996690.

Date/timePositionNaut miles runAvg speedWind from/ knotsBaromVisibWave heightAir tempDewpointWater temp
2017-Sep-20 00:30N 32°44' W 091°04'9 2.5
2017-Sep-19 20:59N 32°36' W 091°09'2 3.8
2017-Sep-19 20:30N 32°35' W 091°07'5 4.1
2017-Sep-19 19:18N 32°30' W 091°07'1 5.0
2017-Sep-19 19:00N 32°29' W 091°07'2 4.4
2017-Sep-19 18:30N 32°27' W 091°05'2 4.0
2017-Sep-19 18:00N 32°26' W 091°03'2 4.5
2017-Sep-19 17:30N 32°25' W 091°00'2 3.2
2017-Sep-19 17:00N 32°24' W 090°59'2 4.1
2017-Sep-19 16:31N 32°22' W 091°00'2 4.1
2017-Sep-19 16:01N 32°21' W 090°58'2 3.5
2017-Sep-19 15:30N 32°21' W 090°56'2 4.0
2017-Sep-19 15:00N 32°20' W 090°54'2 4.0
2017-Sep-19 14:30N 32°18' W 090°55'0 0.7
2017-Sep-19 14:00N 32°18' W 090°55'2 4.7
2017-Sep-19 13:30N 32°16' W 090°57'2 3.8
2017-Sep-19 13:00N 32°15' W 090°59'2 4.6
2017-Sep-19 12:30N 32°13' W 090°59'2 4.5
2017-Sep-19 12:01N 32°11' W 090°60'2 4.4
2017-Sep-19 11:30N 32°08' W 091°00'2 4.0
2017-Sep-19 11:00N 32°07' W 091°02'2 4.5
2017-Sep-19 10:27N 32°08' W 091°05'2 3.7
2017-Sep-19 10:00N 32°07' W 091°07'5 2.9
2017-Sep-19 08:14N 32°03' W 091°03'1 5.1
2017-Sep-19 08:00N 32°02' W 091°04'3 5.1
2017-Sep-19 07:26N 31°59' W 091°06'4 4.4
2017-Sep-19 06:34N 31°59' W 091°10'0 4.5
2017-Sep-19 06:30N 31°59' W 091°11'9 4.0
2017-Sep-19 04:11N 31°51' W 091°18'3 3.6
2017-Sep-19 03:23N 31°50' W 091°21'5 4.5
2017-Sep-19 02:20N 31°46' W 091°22'  
2017-Sep-16 16:28N 32°01' W 091°04'5 8.6
2017-Sep-16 15:53N 32°06' W 091°06'3 6.2
2017-Sep-16 15:22N 32°07' W 091°03'3 8.7
2017-Sep-16 15:00N 32°10' W 091°00'5 9.7
2017-Sep-16 14:30N 32°14' W 090°59'5 9.7
2017-Sep-16 14:00N 32°18' W 090°55'3 6.1
2017-Sep-16 13:30N 32°21' W 090°57'4 7.1
2017-Sep-16 13:00N 32°23' W 090°60'4 8.4
2017-Sep-16 12:30N 32°26' W 091°03'5 9.2
2017-Sep-16 12:00N 32°30' W 091°07'5 9.2
2017-Sep-16 11:30N 32°34' W 091°07'  
Track history (hours):
 
Tides and Currents Weather Stations Pressure Air Temp Water Temp Dewpoint Dewpoint Depression Visibility Wind Speed Wind Dir Waves Ship Positions

Leviticus

Owner: Kirby Inland Marine, LP, Houston, TX. More information available from US FCC via Universal Licensing System and Coast Guard Vessel Documentation Center.

Last reported at 2017-Sep-20 00:30 UTC. Time now 2017-Sep-22 10:18 UTC.
Position N 32°44' W 091°04'.

Length 349 m; draft 2.9 m.

Type: . MMSI: 366996690.

Date/timePositionNaut miles runAvg speedWind from/ knotsBaromVisibWave heightAir tempDewpointWater temp
2017-Sep-20 00:30N 32°44' W 091°04'9 2.5
2017-Sep-19 20:59N 32°36' W 091°09'2 3.8
2017-Sep-19 20:30N 32°35' W 091°07'5 4.1
2017-Sep-19 19:18N 32°30' W 091°07'1 5.0
2017-Sep-19 19:00N 32°29' W 091°07'2 4.4
2017-Sep-19 18:30N 32°27' W 091°05'2 4.0
2017-Sep-19 18:00N 32°26' W 091°03'2 4.5
2017-Sep-19 17:30N 32°25' W 091°00'2 3.2
2017-Sep-19 17:00N 32°24' W 090°59'2 4.1
2017-Sep-19 16:31N 32°22' W 091°00'2 4.1
2017-Sep-19 16:01N 32°21' W 090°58'2 3.5
2017-Sep-19 15:30N 32°21' W 090°56'2 4.0
2017-Sep-19 15:00N 32°20' W 090°54'2 4.0
2017-Sep-19 14:30N 32°18' W 090°55'0 0.7
2017-Sep-19 14:00N 32°18' W 090°55'2 4.7
2017-Sep-19 13:30N 32°16' W 090°57'2 3.8
2017-Sep-19 13:00N 32°15' W 090°59'2 4.6
2017-Sep-19 12:30N 32°13' W 090°59'2 4.5
2017-Sep-19 12:01N 32°11' W 090°60'2 4.4
2017-Sep-19 11:30N 32°08' W 091°00'2 4.0
2017-Sep-19 11:00N 32°07' W 091°02'2 4.5
2017-Sep-19 10:27N 32°08' W 091°05'2 3.7
2017-Sep-19 10:00N 32°07' W 091°07'5 2.9
2017-Sep-19 08:14N 32°03' W 091°03'1 5.1
2017-Sep-19 08:00N 32°02' W 091°04'3 5.1
2017-Sep-19 07:26N 31°59' W 091°06'4 4.4
2017-Sep-19 06:34N 31°59' W 091°10'0 4.5
2017-Sep-19 06:30N 31°59' W 091°11'9 4.0
2017-Sep-19 04:11N 31°51' W 091°18'3 3.6
2017-Sep-19 03:23N 31°50' W 091°21'5 4.5
2017-Sep-19 02:20N 31°46' W 091°22'  
2017-Sep-16 16:28N 32°01' W 091°04'5 8.6
2017-Sep-16 15:53N 32°06' W 091°06'3 6.2
2017-Sep-16 15:22N 32°07' W 091°03'3 8.7
2017-Sep-16 15:00N 32°10' W 091°00'5 9.7
2017-Sep-16 14:30N 32°14' W 090°59'5 9.7
2017-Sep-16 14:00N 32°18' W 090°55'3 6.1
2017-Sep-16 13:30N 32°21' W 090°57'4 7.1
2017-Sep-16 13:00N 32°23' W 090°60'4 8.4
2017-Sep-16 12:30N 32°26' W 091°03'5 9.2
2017-Sep-16 12:00N 32°30' W 091°07'5 9.2
2017-Sep-16 11:30N 32°34' W 091°07'  

Dump ship's entire track history